PWSweather.com
Personal Weather Stations
Station Observations
WATERF01
WaterfordIE

WaterfordIE

Lat: 52.2412507, Lon: -7.1414691

Elevation: 65

Station Type: Davis Vantage Vue

www.waterfordweather.com

High Low Average
Temperature 68.7°F20.4°C 57.9°F14.4°C 64.0°F17.8°C
Dew Point 58.7°F14.8°C 54.2°F12.3°C 56.3°F13.5°C
Winds 9.2 mph 14.8 kmh Calm Calm 5.0 mph NW8.0 kmh NW
Wind Gusts 16.1 mph25.9 kmh -- 8.0 mph12.9 kmh
Humidity 88% 62% 77%
Pressure 29.96 in1014.6 mb 29.71 in1006.1 mb -
Precipitation 0.00 in0.0 mm - -
Hour Temp Dew Point Humidity Winds Wind Gusts Pressure Precip Precip Rate Daily Precip Total
12:00 AM 62.8°F17.1°C 57.6°F14.2°C 83% 3.5 mph NW5.6 kmh NW 5.8 mph9.3 kmh 29.71 in1006.1 mb - 0.00 in0.0 mm 0.00 in0.0 mm
12:10 AM 62.8°F17.1°C 57.6°F14.2°C 83% 2.3 mph NW3.7 kmh NW 5.8 mph9.3 kmh 29.71 in1006.1 mb - 0.00 in0.0 mm 0.00 in0.0 mm
12:20 AM 62.7°F17.1°C 57.5°F14.2°C 83% 3.5 mph NW5.6 kmh NW 5.8 mph9.3 kmh 29.72 in1006.4 mb - 0.00 in0.0 mm 0.00 in0.0 mm
12:30 AM 62.8°F17.1°C 57.2°F14.0°C 82% 3.5 mph NW5.6 kmh NW 6.9 mph11.1 kmh 29.72 in1006.4 mb - 0.00 in0.0 mm 0.00 in0.0 mm
12:40 AM 62.8°F17.1°C 57.2°F14.0°C 82% 4.6 mph NW7.4 kmh NW 8.1 mph13.0 kmh 29.72 in1006.4 mb - 0.00 in0.0 mm 0.00 in0.0 mm
12:50 AM 62.8°F17.1°C 57.2°F14.0°C 82% 1.2 mph WNW1.9 kmh WNW 5.8 mph9.3 kmh 29.72 in1006.4 mb - 0.00 in0.0 mm 0.00 in0.0 mm
01:00 AM 62.6°F17.0°C 57.0°F13.9°C 82% 1.2 mph NW1.9 kmh NW 5.8 mph9.3 kmh 29.72 in1006.4 mb - 0.00 in0.0 mm 0.00 in0.0 mm
01:10 AM 62.6°F17.0°C 57.0°F13.9°C 82% 3.5 mph NW5.6 kmh NW 15.0 mph24.1 kmh 29.72 in1006.4 mb - 0.00 in0.0 mm 0.00 in0.0 mm
01:20 AM 62.5°F16.9°C 56.9°F13.8°C 82% 4.6 mph NW7.4 kmh NW 8.1 mph13.0 kmh 29.72 in1006.4 mb - 0.00 in0.0 mm 0.00 in0.0 mm
01:30 AM 62.3°F16.8°C 56.7°F13.7°C 82% 4.6 mph NW7.4 kmh NW 6.9 mph11.1 kmh 29.72 in1006.4 mb - 0.00 in0.0 mm 0.00 in0.0 mm
01:40 AM 62.1°F16.7°C 56.9°F13.8°C 83% 4.6 mph NW7.4 kmh NW 8.1 mph13.0 kmh 29.72 in1006.4 mb - 0.00 in0.0 mm 0.00 in0.0 mm
01:50 AM 61.8°F16.6°C 56.6°F13.7°C 83% 4.6 mph NW7.4 kmh NW 8.1 mph13.0 kmh 29.72 in1006.4 mb - 0.00 in0.0 mm 0.00 in0.0 mm
02:00 AM 61.6°F16.4°C 56.7°F13.7°C 84% 5.8 mph NW9.3 kmh NW 8.1 mph13.0 kmh 29.72 in1006.4 mb - 0.00 in0.0 mm 0.00 in0.0 mm
02:10 AM 61.3°F16.3°C 56.4°F13.6°C 84% 5.8 mph NW9.3 kmh NW 8.1 mph13.0 kmh 29.72 in1006.4 mb - 0.00 in0.0 mm 0.00 in0.0 mm
02:20 AM 61.2°F16.2°C 56.3°F13.5°C 84% 2.3 mph NW3.7 kmh NW 8.1 mph13.0 kmh 29.73 in1006.8 mb - 0.00 in0.0 mm 0.00 in0.0 mm
02:30 AM 61.0°F16.1°C 56.1°F13.4°C 84% 5.8 mph NW9.3 kmh NW 11.5 mph18.5 kmh 29.73 in1006.8 mb - 0.00 in0.0 mm 0.00 in0.0 mm
02:40 AM 60.7°F15.9°C 55.8°F13.2°C 84% 4.6 mph NW7.4 kmh NW 5.8 mph9.3 kmh 29.73 in1006.8 mb - 0.00 in0.0 mm 0.00 in0.0 mm
02:50 AM 60.4°F15.8°C 55.9°F13.3°C 85% 3.5 mph NW5.6 kmh NW 5.8 mph9.3 kmh 29.73 in1006.8 mb - 0.00 in0.0 mm 0.00 in0.0 mm
03:00 AM 60.1°F15.6°C 55.6°F13.1°C 85% 3.5 mph NW5.6 kmh NW 6.9 mph11.1 kmh 29.73 in1006.8 mb - 0.00 in0.0 mm 0.00 in0.0 mm
03:10 AM 59.9°F15.5°C 55.4°F13.0°C 85% 2.3 mph WNW3.7 kmh WNW 5.8 mph9.3 kmh 29.74 in1007.1 mb - 0.00 in0.0 mm 0.00 in0.0 mm
03:20 AM 59.7°F15.4°C 55.5°F13.1°C 86% 4.6 mph NW7.4 kmh NW 6.9 mph11.1 kmh 29.73 in1006.8 mb - 0.00 in0.0 mm 0.00 in0.0 mm
03:30 AM 59.5°F15.3°C 55.3°F12.9°C 86% 3.5 mph NW5.6 kmh NW 5.8 mph9.3 kmh 29.73 in1006.8 mb - 0.00 in0.0 mm 0.00 in0.0 mm
03:40 AM 59.3°F15.2°C 55.1°F12.8°C 86% 4.6 mph NW7.4 kmh NW 5.8 mph9.3 kmh 29.74 in1007.1 mb - 0.00 in0.0 mm 0.00 in0.0 mm
03:50 AM 59.1°F15.1°C 55.2°F12.9°C 87% 2.3 mph NW3.7 kmh NW 8.1 mph13.0 kmh 29.74 in1007.1 mb - 0.00 in0.0 mm 0.00 in0.0 mm
04:00 AM 58.9°F14.9°C 55.0°F12.8°C 87% 5.8 mph NW9.3 kmh NW 9.2 mph14.8 kmh 29.74 in1007.1 mb - 0.00 in0.0 mm 0.00 in0.0 mm
04:10 AM 58.8°F14.9°C 54.9°F12.7°C 87% 4.6 mph NW7.4 kmh NW 8.1 mph13.0 kmh 29.75 in1007.5 mb - 0.00 in0.0 mm 0.00 in0.0 mm
04:20 AM 58.6°F14.8°C 54.7°F12.6°C 87% 3.5 mph NW5.6 kmh NW 9.2 mph14.8 kmh 29.75 in1007.5 mb - 0.00 in0.0 mm 0.00 in0.0 mm
04:30 AM 58.4°F14.7°C 54.6°F12.6°C 87% 5.8 mph NW9.3 kmh NW 6.9 mph11.1 kmh 29.75 in1007.5 mb - 0.00 in0.0 mm 0.00 in0.0 mm
04:40 AM 58.2°F14.6°C 54.4°F12.4°C 87% 5.8 mph NNW9.3 kmh NNW 9.2 mph14.8 kmh 29.75 in1007.5 mb - 0.00 in0.0 mm 0.00 in0.0 mm
04:50 AM 58.0°F14.4°C 54.2°F12.3°C 87% 4.6 mph NW7.4 kmh NW 9.2 mph14.8 kmh 29.75 in1007.5 mb - 0.00 in0.0 mm 0.00 in0.0 mm
05:00 AM 57.9°F14.4°C 54.4°F12.4°C 88% 3.5 mph NNW5.6 kmh NNW 6.9 mph11.1 kmh 29.75 in1007.5 mb - 0.00 in0.0 mm 0.00 in0.0 mm
05:10 AM 57.9°F14.4°C 54.4°F12.4°C 88% 4.6 mph NW7.4 kmh NW 11.5 mph18.5 kmh 29.76 in1007.8 mb - 0.00 in0.0 mm 0.00 in0.0 mm
05:20 AM 57.9°F14.4°C 54.4°F12.4°C 88% 3.5 mph NW5.6 kmh NW 8.1 mph13.0 kmh 29.76 in1007.8 mb - 0.00 in0.0 mm 0.00 in0.0 mm
05:30 AM 57.9°F14.4°C 54.4°F12.4°C 88% 4.6 mph NW7.4 kmh NW 6.9 mph11.1 kmh 29.77 in1008.1 mb - 0.00 in0.0 mm 0.00 in0.0 mm
05:40 AM 57.9°F14.4°C 54.4°F12.4°C 88% 4.6 mph NW7.4 kmh NW 9.2 mph14.8 kmh 29.77 in1008.1 mb - 0.00 in0.0 mm 0.00 in0.0 mm
05:50 AM 58.0°F14.4°C 54.5°F12.5°C 88% 5.8 mph NW9.3 kmh NW 8.1 mph13.0 kmh 29.77 in1008.1 mb - 0.00 in0.0 mm 0.00 in0.0 mm
06:00 AM 58.1°F14.5°C 54.6°F12.6°C 88% 5.8 mph NW9.3 kmh NW 8.1 mph13.0 kmh 29.77 in1008.1 mb - 0.00 in0.0 mm 0.00 in0.0 mm
06:10 AM 58.3°F14.6°C 54.8°F12.7°C 88% 4.6 mph NW7.4 kmh NW 8.1 mph13.0 kmh 29.78 in1008.5 mb - 0.00 in0.0 mm 0.00 in0.0 mm
06:20 AM 58.6°F14.8°C 55.1°F12.8°C 88% 3.5 mph NW5.6 kmh NW 5.8 mph9.3 kmh 29.78 in1008.5 mb - 0.00 in0.0 mm 0.00 in0.0 mm
06:30 AM 59.0°F15.0°C 55.4°F13.0°C 88% 5.8 mph NW9.3 kmh NW 9.2 mph14.8 kmh 29.78 in1008.5 mb - 0.00 in0.0 mm 0.00 in0.0 mm
06:40 AM 59.3°F15.2°C 55.4°F13.0°C 87% 6.9 mph NW11.1 kmh NW 8.1 mph13.0 kmh 29.79 in1008.8 mb - 0.00 in0.0 mm 0.00 in0.0 mm
06:50 AM 59.4°F15.2°C 55.5°F13.1°C 87% 6.9 mph NW11.1 kmh NW 11.5 mph18.5 kmh 29.79 in1008.8 mb - 0.00 in0.0 mm 0.00 in0.0 mm
07:00 AM 59.6°F15.3°C 55.7°F13.2°C 87% 4.6 mph NW7.4 kmh NW 9.2 mph14.8 kmh 29.79 in1008.8 mb - 0.00 in0.0 mm 0.00 in0.0 mm
07:10 AM 59.7°F15.4°C 55.9°F13.3°C 87% 4.6 mph NNW7.4 kmh NNW 8.1 mph13.0 kmh 29.80 in1009.1 mb - 0.00 in0.0 mm 0.00 in0.0 mm
07:20 AM 60.0°F15.6°C 56.1°F13.4°C 87% 6.9 mph NW11.1 kmh NW 12.7 mph20.4 kmh 29.80 in1009.1 mb - 0.00 in0.0 mm 0.00 in0.0 mm
07:30 AM 60.3°F15.7°C 56.4°F13.6°C 87% 6.9 mph NW11.1 kmh NW 11.5 mph18.5 kmh 29.80 in1009.1 mb - 0.00 in0.0 mm 0.00 in0.0 mm
07:40 AM 60.8°F16.0°C 56.9°F13.8°C 87% 4.6 mph NW7.4 kmh NW 8.1 mph13.0 kmh 29.80 in1009.1 mb - 0.00 in0.0 mm 0.00 in0.0 mm
07:50 AM 61.2°F16.2°C 57.0°F13.9°C 86% 4.6 mph NW7.4 kmh NW 11.5 mph18.5 kmh 29.80 in1009.1 mb - 0.00 in0.0 mm 0.00 in0.0 mm
08:00 AM 61.7°F16.5°C 57.1°F13.9°C 85% 5.8 mph NW9.3 kmh NW 11.5 mph18.5 kmh 29.81 in1009.5 mb - 0.00 in0.0 mm 0.00 in0.0 mm
08:10 AM 62.0°F16.7°C 57.5°F14.2°C 85% 6.9 mph NW11.1 kmh NW 9.2 mph14.8 kmh 29.81 in1009.5 mb - 0.00 in0.0 mm 0.00 in0.0 mm
08:20 AM 62.4°F16.9°C 57.5°F14.2°C 84% 8.1 mph NW13.0 kmh NW 13.8 mph22.2 kmh 29.81 in1009.5 mb - 0.00 in0.0 mm 0.00 in0.0 mm
08:30 AM 62.7°F17.1°C 57.8°F14.3°C 84% 5.8 mph NW9.3 kmh NW 9.2 mph14.8 kmh 29.82 in1009.8 mb - 0.00 in0.0 mm 0.00 in0.0 mm
08:40 AM 62.9°F17.2°C 58.0°F14.4°C 84% 5.8 mph NW9.3 kmh NW 8.1 mph13.0 kmh 29.82 in1009.8 mb - 0.00 in0.0 mm 0.00 in0.0 mm
08:50 AM 63.2°F17.3°C 57.6°F14.2°C 82% 5.8 mph NW9.3 kmh NW 8.1 mph13.0 kmh 29.82 in1009.8 mb - 0.00 in0.0 mm 0.00 in0.0 mm
09:00 AM 63.6°F17.6°C 58.0°F14.4°C 82% 3.5 mph WNW5.6 kmh WNW 5.8 mph9.3 kmh 29.82 in1009.8 mb - 0.00 in0.0 mm 0.00 in0.0 mm
09:10 AM 64.0°F17.8°C 58.1°F14.5°C 81% 6.9 mph WNW11.1 kmh WNW 9.2 mph14.8 kmh 29.82 in1009.8 mb - 0.00 in0.0 mm 0.00 in0.0 mm
09:20 AM 64.1°F17.8°C 57.8°F14.3°C 80% 5.8 mph NW9.3 kmh NW 8.1 mph13.0 kmh 29.82 in1009.8 mb - 0.00 in0.0 mm 0.00 in0.0 mm
09:30 AM 65.0°F18.3°C 58.7°F14.8°C 80% 6.9 mph NW11.1 kmh NW 11.5 mph18.5 kmh 29.83 in1010.2 mb - 0.00 in0.0 mm 0.00 in0.0 mm
09:40 AM 65.0°F18.3°C 58.0°F14.4°C 78% 6.9 mph NW11.1 kmh NW 11.5 mph18.5 kmh 29.83 in1010.2 mb - 0.00 in0.0 mm 0.00 in0.0 mm
09:50 AM 65.3°F18.5°C 57.9°F14.4°C 77% 6.9 mph NW11.1 kmh NW 9.2 mph14.8 kmh 29.83 in1010.2 mb - 0.00 in0.0 mm 0.00 in0.0 mm
10:00 AM 65.3°F18.5°C 57.9°F14.4°C 77% 8.1 mph NW13.0 kmh NW 16.1 mph25.9 kmh 29.84 in1010.5 mb - 0.00 in0.0 mm 0.00 in0.0 mm
10:10 AM 65.6°F18.7°C 57.8°F14.3°C 76% 2.3 mph NW3.7 kmh NW 5.8 mph9.3 kmh 29.84 in1010.5 mb - 0.00 in0.0 mm 0.00 in0.0 mm
10:20 AM 65.7°F18.7°C 57.5°F14.2°C 75% 6.9 mph WNW11.1 kmh WNW 11.5 mph18.5 kmh 29.84 in1010.5 mb - 0.00 in0.0 mm 0.00 in0.0 mm
10:30 AM 65.8°F18.8°C 57.2°F14.0°C 74% 6.9 mph NW11.1 kmh NW 9.2 mph14.8 kmh 29.84 in1010.5 mb - 0.00 in0.0 mm 0.00 in0.0 mm
10:40 AM 66.3°F19.1°C 57.4°F14.1°C 73% 5.8 mph WNW9.3 kmh WNW 8.1 mph13.0 kmh 29.84 in1010.5 mb - 0.00 in0.0 mm 0.00 in0.0 mm
10:50 AM 66.2°F19.0°C 56.2°F13.4°C 70% 6.9 mph NW11.1 kmh NW 11.5 mph18.5 kmh 29.84 in1010.5 mb - 0.00 in0.0 mm 0.00 in0.0 mm
11:00 AM 66.4°F19.1°C 56.3°F13.5°C 70% 6.9 mph NW11.1 kmh NW 12.7 mph20.4 kmh 29.84 in1010.5 mb - 0.00 in0.0 mm 0.00 in0.0 mm
11:10 AM 66.6°F19.2°C 56.9°F13.8°C 71% 5.8 mph NNW9.3 kmh NNW 11.5 mph18.5 kmh 29.84 in1010.5 mb - 0.00 in0.0 mm 0.00 in0.0 mm
11:20 AM 66.9°F19.4°C 56.8°F13.8°C 70% 6.9 mph WNW11.1 kmh WNW 12.7 mph20.4 kmh 29.84 in1010.5 mb - 0.00 in0.0 mm 0.00 in0.0 mm
11:30 AM 66.7°F19.3°C 56.6°F13.7°C 70% 6.9 mph NW11.1 kmh NW 13.8 mph22.2 kmh 29.85 in1010.8 mb - 0.00 in0.0 mm 0.00 in0.0 mm
11:40 AM 66.7°F19.3°C 56.2°F13.4°C 69% 6.9 mph NW11.1 kmh NW 12.7 mph20.4 kmh 29.84 in1010.5 mb - 0.00 in0.0 mm 0.00 in0.0 mm
11:50 AM 67.2°F19.6°C 57.1°F13.9°C 70% 5.8 mph NW9.3 kmh NW 9.2 mph14.8 kmh 29.84 in1010.5 mb - 0.00 in0.0 mm 0.00 in0.0 mm
12:00 PM 67.9°F19.9°C 56.9°F13.8°C 68% 3.5 mph NW5.6 kmh NW 5.8 mph9.3 kmh 29.84 in1010.5 mb - 0.00 in0.0 mm 0.00 in0.0 mm
12:10 PM 67.6°F19.8°C 56.7°F13.7°C 68% 4.6 mph NW7.4 kmh NW 8.1 mph13.0 kmh 29.84 in1010.5 mb - 0.00 in0.0 mm 0.00 in0.0 mm
12:20 PM 67.7°F19.8°C 56.3°F13.5°C 67% 8.1 mph NW13.0 kmh NW 11.5 mph18.5 kmh 29.85 in1010.8 mb - 0.00 in0.0 mm 0.00 in0.0 mm
12:30 PM 68.1°F20.1°C 56.7°F13.7°C 67% 3.5 mph NW5.6 kmh NW 13.8 mph22.2 kmh 29.85 in1010.8 mb - 0.00 in0.0 mm 0.00 in0.0 mm
12:40 PM 68.0°F20.0°C 55.8°F13.2°C 65% 4.6 mph NW7.4 kmh NW 11.5 mph18.5 kmh 29.85 in1010.8 mb - 0.00 in0.0 mm 0.00 in0.0 mm
12:50 PM 67.8°F19.9°C 55.6°F13.1°C 65% 5.8 mph NW9.3 kmh NW 9.2 mph14.8 kmh 29.85 in1010.8 mb - 0.00 in0.0 mm 0.00 in0.0 mm
01:00 PM 67.6°F19.8°C 55.4°F13.0°C 65% 4.6 mph NW7.4 kmh NW 8.1 mph13.0 kmh 29.86 in1011.2 mb - 0.00 in0.0 mm 0.00 in0.0 mm
01:10 PM 68.0°F20.0°C 55.4°F13.0°C 64% 5.8 mph NW9.3 kmh NW 8.1 mph13.0 kmh 29.86 in1011.2 mb - 0.00 in0.0 mm 0.00 in0.0 mm
01:20 PM 68.2°F20.1°C 54.7°F12.6°C 62% 4.6 mph NW7.4 kmh NW 5.8 mph9.3 kmh 29.86 in1011.2 mb - 0.00 in0.0 mm 0.00 in0.0 mm
01:30 PM 68.2°F20.1°C 56.0°F13.3°C 65% 9.2 mph NW14.8 kmh NW 12.7 mph20.4 kmh 29.86 in1011.2 mb - 0.00 in0.0 mm 0.00 in0.0 mm
01:40 PM 67.9°F19.9°C 56.1°F13.4°C 66% 6.9 mph WNW11.1 kmh WNW 8.1 mph13.0 kmh 29.87 in1011.5 mb - 0.00 in0.0 mm 0.00 in0.0 mm
01:50 PM 67.8°F19.9°C 56.5°F13.6°C 67% 5.8 mph NW9.3 kmh NW 6.9 mph11.1 kmh 29.87 in1011.5 mb - 0.00 in0.0 mm 0.00 in0.0 mm
02:00 PM 68.2°F20.1°C 56.4°F13.6°C 66% 4.6 mph NW7.4 kmh NW 8.1 mph13.0 kmh 29.87 in1011.5 mb - 0.00 in0.0 mm 0.00 in0.0 mm
02:10 PM 67.7°F19.8°C 56.3°F13.5°C 67% 5.8 mph NW9.3 kmh NW 8.1 mph13.0 kmh 29.87 in1011.5 mb - 0.00 in0.0 mm 0.00 in0.0 mm
02:20 PM 67.5°F19.7°C 56.2°F13.4°C 67% 4.6 mph NW7.4 kmh NW 8.1 mph13.0 kmh 29.87 in1011.5 mb - 0.00 in0.0 mm 0.00 in0.0 mm
02:30 PM 67.4°F19.7°C 56.5°F13.6°C 68% 5.8 mph NW9.3 kmh NW 8.1 mph13.0 kmh 29.87 in1011.5 mb - 0.00 in0.0 mm 0.00 in0.0 mm
02:40 PM 67.4°F19.7°C 56.5°F13.6°C 68% 5.8 mph NW9.3 kmh NW 11.5 mph18.5 kmh 29.87 in1011.5 mb - 0.00 in0.0 mm 0.00 in0.0 mm
02:50 PM 67.1°F19.5°C 56.6°F13.7°C 69% 6.9 mph NW11.1 kmh NW 13.8 mph22.2 kmh 29.87 in1011.5 mb - 0.00 in0.0 mm 0.00 in0.0 mm
03:00 PM 66.9°F19.4°C 56.0°F13.3°C 68% 6.9 mph NW11.1 kmh NW 11.5 mph18.5 kmh 29.87 in1011.5 mb - 0.00 in0.0 mm 0.00 in0.0 mm
03:10 PM 66.7°F19.3°C 56.2°F13.4°C 69% 5.8 mph WNW9.3 kmh WNW 11.5 mph18.5 kmh 29.87 in1011.5 mb - 0.00 in0.0 mm 0.00 in0.0 mm
03:20 PM 66.7°F19.3°C 56.2°F13.4°C 69% 4.6 mph WNW7.4 kmh WNW 8.1 mph13.0 kmh 29.87 in1011.5 mb - 0.00 in0.0 mm 0.00 in0.0 mm
03:30 PM 67.0°F19.4°C 56.9°F13.8°C 70% 3.5 mph NW5.6 kmh NW 8.1 mph13.0 kmh 29.87 in1011.5 mb - 0.00 in0.0 mm 0.00 in0.0 mm
03:40 PM 66.9°F19.4°C 56.4°F13.6°C 69% 3.5 mph W5.6 kmh W 5.8 mph9.3 kmh 29.88 in1011.9 mb - 0.00 in0.0 mm 0.00 in0.0 mm
03:50 PM 66.4°F19.1°C 55.9°F13.3°C 69% 6.9 mph NW11.1 kmh NW 13.8 mph22.2 kmh 29.88 in1011.9 mb - 0.00 in0.0 mm 0.00 in0.0 mm
04:00 PM 66.2°F19.0°C 56.1°F13.4°C 70% 6.9 mph WNW11.1 kmh WNW 13.8 mph22.2 kmh 29.88 in1011.9 mb - 0.00 in0.0 mm 0.00 in0.0 mm
04:10 PM 65.9°F18.8°C 56.2°F13.4°C 71% 5.8 mph WNW9.3 kmh WNW 9.2 mph14.8 kmh 29.89 in1012.2 mb - 0.00 in0.0 mm 0.00 in0.0 mm
04:20 PM 65.6°F18.7°C 56.3°F13.5°C 72% 6.9 mph NW11.1 kmh NW 11.5 mph18.5 kmh 29.88 in1011.9 mb - 0.00 in0.0 mm 0.00 in0.0 mm
04:30 PM 65.8°F18.8°C 56.5°F13.6°C 72% 6.9 mph NW11.1 kmh NW 13.8 mph22.2 kmh 29.88 in1011.9 mb - 0.00 in0.0 mm 0.00 in0.0 mm
04:40 PM 66.7°F19.3°C 56.6°F13.7°C 70% 5.8 mph NNW9.3 kmh NNW 9.2 mph14.8 kmh 29.88 in1011.9 mb - 0.00 in0.0 mm 0.00 in0.0 mm
04:50 PM 67.0°F19.4°C 56.5°F13.6°C 69% 6.9 mph NW11.1 kmh NW 11.5 mph18.5 kmh 29.88 in1011.9 mb - 0.00 in0.0 mm 0.00 in0.0 mm
05:00 PM 67.5°F19.7°C 56.1°F13.4°C 67% 3.5 mph NW5.6 kmh NW 11.5 mph18.5 kmh 29.88 in1011.9 mb - 0.00 in0.0 mm 0.00 in0.0 mm
05:10 PM 67.6°F19.8°C 56.2°F13.4°C 67% 5.8 mph NW9.3 kmh NW 11.5 mph18.5 kmh 29.88 in1011.9 mb - 0.00 in0.0 mm 0.00 in0.0 mm
05:20 PM 67.6°F19.8°C 56.7°F13.7°C 68% 3.5 mph NNW5.6 kmh NNW 8.1 mph13.0 kmh 29.88 in1011.9 mb - 0.00 in0.0 mm 0.00 in0.0 mm
05:30 PM 68.1°F20.1°C 57.2°F14.0°C 68% 3.5 mph NNW5.6 kmh NNW 5.8 mph9.3 kmh 29.88 in1011.9 mb - 0.00 in0.0 mm 0.00 in0.0 mm
05:40 PM 68.7°F20.4°C 57.3°F14.1°C 67% 2.3 mph NW3.7 kmh NW 4.6 mph7.4 kmh 29.88 in1011.9 mb - 0.00 in0.0 mm 0.00 in0.0 mm
05:50 PM 68.2°F20.1°C 57.2°F14.0°C 68% Calm Calm -- 29.88 in1011.9 mb - 0.00 in0.0 mm 0.00 in0.0 mm
06:00 PM 68.0°F20.0°C 57.0°F13.9°C 68% Calm Calm -- 29.88 in1011.9 mb - 0.00 in0.0 mm 0.00 in0.0 mm
06:10 PM 67.8°F19.9°C 56.9°F13.8°C 68% 4.6 mph NW7.4 kmh NW 5.8 mph9.3 kmh 29.88 in1011.9 mb - 0.00 in0.0 mm 0.00 in0.0 mm
06:20 PM 67.9°F19.9°C 57.3°F14.1°C 69% 1.2 mph NW1.9 kmh NW -- 29.88 in1011.9 mb - 0.00 in0.0 mm 0.00 in0.0 mm
06:30 PM 67.8°F19.9°C 57.3°F14.1°C 69% 2.3 mph NW3.7 kmh NW 5.8 mph9.3 kmh 29.89 in1012.2 mb - 0.00 in0.0 mm 0.00 in0.0 mm
06:40 PM 67.9°F19.9°C 56.5°F13.6°C 67% 2.3 mph NW3.7 kmh NW 6.9 mph11.1 kmh 29.89 in1012.2 mb - 0.00 in0.0 mm 0.00 in0.0 mm
06:50 PM 67.7°F19.8°C 56.3°F13.5°C 67% 4.6 mph NNW7.4 kmh NNW 8.1 mph13.0 kmh 29.89 in1012.2 mb - 0.00 in0.0 mm 0.00 in0.0 mm
07:00 PM 67.5°F19.7°C 56.5°F13.6°C 68% 6.9 mph NW11.1 kmh NW 11.5 mph18.5 kmh 29.89 in1012.2 mb - 0.00 in0.0 mm 0.00 in0.0 mm
07:10 PM 67.4°F19.7°C 56.9°F13.8°C 69% 2.3 mph NW3.7 kmh NW 6.9 mph11.1 kmh 29.89 in1012.2 mb - 0.00 in0.0 mm 0.00 in0.0 mm
07:20 PM 67.2°F19.6°C 56.7°F13.7°C 69% 5.8 mph NW9.3 kmh NW 8.1 mph13.0 kmh 29.90 in1012.5 mb - 0.00 in0.0 mm 0.00 in0.0 mm
07:30 PM 66.9°F19.4°C 56.8°F13.8°C 70% 4.6 mph NW7.4 kmh NW 6.9 mph11.1 kmh 29.90 in1012.5 mb - 0.00 in0.0 mm 0.00 in0.0 mm
07:40 PM 66.8°F19.3°C 56.7°F13.7°C 70% 3.5 mph NW5.6 kmh NW 6.9 mph11.1 kmh 29.90 in1012.5 mb - 0.00 in0.0 mm 0.00 in0.0 mm
07:50 PM 66.4°F19.1°C 56.3°F13.5°C 70% 6.9 mph NW11.1 kmh NW 11.5 mph18.5 kmh 29.90 in1012.5 mb - 0.00 in0.0 mm 0.00 in0.0 mm
08:00 PM 65.9°F18.8°C 55.9°F13.3°C 70% 5.8 mph NW9.3 kmh NW 9.2 mph14.8 kmh 29.91 in1012.9 mb - 0.00 in0.0 mm 0.00 in0.0 mm
08:10 PM 65.5°F18.6°C 55.9°F13.3°C 71% 4.6 mph NNW7.4 kmh NNW 8.1 mph13.0 kmh 29.92 in1013.2 mb - 0.00 in0.0 mm 0.00 in0.0 mm
08:20 PM 65.3°F18.5°C 56.0°F13.3°C 72% 4.6 mph NW7.4 kmh NW 11.5 mph18.5 kmh 29.92 in1013.2 mb - 0.00 in0.0 mm 0.00 in0.0 mm
08:30 PM 65.1°F18.4°C 55.8°F13.2°C 72% 4.6 mph NW7.4 kmh NW 11.5 mph18.5 kmh 29.92 in1013.2 mb - 0.00 in0.0 mm 0.00 in0.0 mm
08:40 PM 65.0°F18.3°C 56.1°F13.4°C 73% 5.8 mph NW9.3 kmh NW 9.2 mph14.8 kmh 29.92 in1013.2 mb - 0.00 in0.0 mm 0.00 in0.0 mm
08:50 PM 64.9°F18.3°C 56.0°F13.3°C 73% 2.3 mph NW3.7 kmh NW 4.6 mph7.4 kmh 29.93 in1013.5 mb - 0.00 in0.0 mm 0.00 in0.0 mm
09:00 PM 64.7°F18.2°C 56.2°F13.4°C 74% 3.5 mph NW5.6 kmh NW 5.8 mph9.3 kmh 29.93 in1013.5 mb - 0.00 in0.0 mm 0.00 in0.0 mm
09:10 PM 64.6°F18.1°C 56.1°F13.4°C 74% 3.5 mph NW5.6 kmh NW 5.8 mph9.3 kmh 29.93 in1013.5 mb - 0.00 in0.0 mm 0.00 in0.0 mm
09:20 PM 64.4°F18.0°C 56.3°F13.5°C 75% 2.3 mph NW3.7 kmh NW 4.6 mph7.4 kmh 29.93 in1013.5 mb - 0.00 in0.0 mm 0.00 in0.0 mm
09:30 PM 64.1°F17.8°C 56.4°F13.6°C 76% 1.2 mph NW1.9 kmh NW 5.8 mph9.3 kmh 29.94 in1013.9 mb - 0.00 in0.0 mm 0.00 in0.0 mm
09:40 PM 63.9°F17.7°C 56.2°F13.4°C 76% 1.2 mph WNW1.9 kmh WNW 5.8 mph9.3 kmh 29.94 in1013.9 mb - 0.00 in0.0 mm 0.00 in0.0 mm
09:50 PM 63.9°F17.7°C 56.2°F13.4°C 76% 2.3 mph NNW3.7 kmh NNW 4.6 mph7.4 kmh 29.94 in1013.9 mb - 0.00 in0.0 mm 0.00 in0.0 mm
10:00 PM 63.8°F17.7°C 56.4°F13.6°C 77% 1.2 mph NNW1.9 kmh NNW 2.3 mph3.7 kmh 29.94 in1013.9 mb - 0.00 in0.0 mm 0.00 in0.0 mm
10:10 PM 63.6°F17.6°C 56.3°F13.5°C 77% 3.5 mph NNW5.6 kmh NNW 5.8 mph9.3 kmh 29.95 in1014.2 mb - 0.00 in0.0 mm 0.00 in0.0 mm
10:20 PM 63.4°F17.4°C 56.5°F13.6°C 78% 2.3 mph NW3.7 kmh NW 4.6 mph7.4 kmh 29.94 in1013.9 mb - 0.00 in0.0 mm 0.00 in0.0 mm
10:30 PM 63.3°F17.4°C 56.7°F13.7°C 79% 3.5 mph NW5.6 kmh NW 5.8 mph9.3 kmh 29.95 in1014.2 mb - 0.00 in0.0 mm 0.00 in0.0 mm
10:40 PM 63.2°F17.3°C 56.6°F13.7°C 79% 4.6 mph NNW7.4 kmh NNW 5.8 mph9.3 kmh 29.95 in1014.2 mb - 0.00 in0.0 mm 0.00 in0.0 mm
10:50 PM 63.1°F17.3°C 56.5°F13.6°C 79% Calm Calm 1.2 mph1.9 kmh 29.95 in1014.2 mb - 0.00 in0.0 mm 0.00 in0.0 mm
11:00 PM 62.8°F17.1°C 56.5°F13.6°C 80% 1.2 mph W1.9 kmh W -- 29.94 in1013.9 mb - 0.00 in0.0 mm 0.00 in0.0 mm
11:10 PM 62.6°F17.0°C 56.3°F13.5°C 80% Calm Calm -- 29.95 in1014.2 mb - 0.00 in0.0 mm 0.00 in0.0 mm
11:20 PM 62.4°F16.9°C 56.5°F13.6°C 81% Calm Calm -- 29.95 in1014.2 mb - 0.00 in0.0 mm 0.00 in0.0 mm
11:30 PM 62.2°F16.8°C 56.3°F13.5°C 81% Calm Calm 2.3 mph3.7 kmh 29.95 in1014.2 mb - 0.00 in0.0 mm 0.00 in0.0 mm
11:40 PM 62.0°F16.7°C 56.1°F13.4°C 81% Calm Calm -- 29.95 in1014.2 mb - 0.00 in0.0 mm 0.00 in0.0 mm
11:50 PM 61.7°F16.5°C 56.1°F13.4°C 82% Calm Calm -- 29.96 in1014.6 mb - 0.00 in0.0 mm 0.00 in0.0 mm